createdAt,value
2018-05-24T00:00:48.611Z,16.10
2018-05-24T00:07:34.382Z,16.10
2018-05-24T00:10:44.716Z,16.10
2018-05-24T00:13:54.830Z,16.20
2018-05-24T00:17:05.552Z,16.10
2018-05-24T00:20:15.136Z,16.10
2018-05-24T00:23:26.486Z,16.10
2018-05-24T00:26:36.362Z,16.10
2018-05-24T00:29:47.479Z,16.10
2018-05-24T00:32:57.849Z,16.10
2018-05-24T00:36:07.942Z,16.10
2018-05-24T00:39:18.063Z,16.10
2018-05-24T00:42:28.051Z,16.00
2018-05-24T00:45:37.968Z,16.00
2018-05-24T00:48:48.298Z,16.00
2018-05-24T00:51:58.125Z,15.90
2018-05-24T00:55:19.540Z,15.90
2018-05-24T00:58:29.626Z,15.90
2018-05-24T01:01:39.611Z,15.80
2018-05-24T01:04:50.787Z,15.80
2018-05-24T01:08:00.987Z,15.80
2018-05-24T01:11:12.080Z,15.70
2018-05-24T01:14:23.014Z,15.80
2018-05-24T01:17:33.117Z,15.70
2018-05-24T01:20:42.950Z,15.70
2018-05-24T01:23:53.750Z,15.70
2018-05-24T01:27:03.695Z,15.70
2018-05-24T01:30:13.561Z,15.70
2018-05-24T01:33:23.541Z,15.70
2018-05-24T01:36:46.289Z,15.60
2018-05-24T01:39:56.172Z,15.60
2018-05-24T01:43:07.120Z,15.50
2018-05-24T01:46:17.428Z,15.50
2018-05-24T01:49:27.782Z,15.50
2018-05-24T01:52:37.540Z,15.40
2018-05-24T01:55:48.319Z,15.40
2018-05-24T01:58:58.251Z,15.40
2018-05-24T02:02:09.602Z,15.40
2018-05-24T02:05:20.060Z,15.40
2018-05-24T02:08:30.970Z,15.40
2018-05-24T02:11:41.548Z,15.40
2018-05-24T02:14:51.424Z,15.40
2018-05-24T02:18:01.575Z,15.40
2018-05-24T02:21:11.504Z,15.40
2018-05-24T02:24:21.456Z,15.30
2018-05-24T02:27:31.404Z,15.30
2018-05-24T02:30:42.432Z,15.30
2018-05-24T02:33:52.423Z,15.20
2018-05-24T02:37:03.075Z,15.20
2018-05-24T02:40:13.346Z,15.20
2018-05-24T02:43:22.844Z,15.20
2018-05-24T02:46:33.297Z,15.10
2018-05-24T02:49:43.779Z,15.20
2018-05-24T02:52:54.195Z,15.20
2018-05-24T02:56:03.999Z,15.20
2018-05-24T02:59:14.076Z,15.20
2018-05-24T03:02:25.476Z,15.20
2018-05-24T03:05:35.760Z,15.20
2018-05-24T03:08:45.647Z,15.20
2018-05-24T03:11:55.561Z,15.10
2018-05-24T03:15:06.484Z,15.20
2018-05-24T03:18:16.371Z,15.20
2018-05-24T03:21:26.181Z,15.20
2018-05-24T03:24:36.155Z,15.20
2018-05-24T03:27:46.545Z,15.20
2018-05-24T03:30:57.244Z,15.20
2018-05-24T03:34:08.205Z,15.20
2018-05-24T03:37:18.628Z,15.20
2018-05-24T03:40:28.709Z,15.20
2018-05-24T03:43:38.724Z,15.20
2018-05-24T03:46:49.406Z,15.20
2018-05-24T03:50:00.607Z,15.20
2018-05-24T03:53:10.368Z,15.20
2018-05-24T03:56:20.427Z,15.30
2018-05-24T04:03:29.589Z,15.30
2018-05-24T04:06:39.564Z,15.30
2018-05-24T04:09:49.673Z,15.30
2018-05-24T04:12:59.947Z,15.30
2018-05-24T04:16:10.292Z,15.30
2018-05-24T04:19:20.944Z,15.30
2018-05-24T04:22:31.261Z,15.40
2018-05-24T04:25:41.860Z,15.40
2018-05-24T04:28:51.962Z,15.40
2018-05-24T04:32:02.200Z,15.40
2018-05-24T04:35:12.278Z,15.40
2018-05-24T04:38:22.340Z,15.50
2018-05-24T04:41:32.402Z,15.50
2018-05-24T04:44:42.351Z,15.50
2018-05-24T04:47:52.422Z,15.50
2018-05-24T04:51:02.981Z,15.50
2018-05-24T04:54:13.207Z,15.50
2018-05-24T04:57:23.164Z,15.50
2018-05-24T05:00:32.726Z,15.50
2018-05-24T05:03:42.863Z,15.50
2018-05-24T05:06:52.836Z,15.50
2018-05-24T05:10:02.706Z,15.60
2018-05-24T05:13:12.698Z,15.60
2018-05-24T05:16:22.593Z,15.60
2018-05-24T05:19:32.832Z,15.60
2018-05-24T05:22:42.823Z,15.60
2018-05-24T05:25:53.147Z,15.50
2018-05-24T05:29:04.247Z,15.60
2018-05-24T05:32:14.758Z,15.60
2018-05-24T05:35:24.818Z,15.60
2018-05-24T05:38:35.699Z,15.70
2018-05-24T05:41:45.879Z,15.70
2018-05-24T05:44:55.896Z,15.70
2018-05-24T05:48:06.924Z,15.70
2018-05-24T05:51:17.059Z,15.80
2018-05-24T05:54:27.706Z,15.80
2018-05-24T05:57:37.758Z,15.80
2018-05-24T06:00:48.489Z,15.80
2018-05-24T06:03:58.698Z,15.80
2018-05-24T06:07:08.522Z,15.80
2018-05-24T06:10:19.249Z,15.80
2018-05-24T06:13:30.061Z,15.80
2018-05-24T06:16:40.064Z,15.80
2018-05-24T06:19:51.252Z,15.80
2018-05-24T06:23:01.043Z,15.80
2018-05-24T06:26:10.898Z,15.80
2018-05-24T06:29:21.586Z,15.90
2018-05-24T06:32:31.343Z,15.90
2018-05-24T06:35:41.635Z,15.90
2018-05-24T06:38:51.524Z,15.90
2018-05-24T06:42:01.513Z,15.80
2018-05-24T06:45:12.524Z,15.80
2018-05-24T06:48:22.518Z,15.80
2018-05-24T06:51:32.640Z,15.80
2018-05-24T06:54:42.886Z,15.80
2018-05-24T06:57:53.399Z,15.80
2018-05-24T07:01:04.187Z,15.80
2018-05-24T07:04:14.585Z,15.80
2018-05-24T07:07:25.480Z,15.80
2018-05-24T07:10:35.539Z,15.80
2018-05-24T07:13:46.318Z,15.80
2018-05-24T07:16:56.543Z,15.80
2018-05-24T07:20:06.437Z,15.90
2018-05-24T07:23:16.366Z,15.80
2018-05-24T07:26:26.711Z,15.80
2018-05-24T07:29:36.617Z,15.90
2018-05-24T07:32:47.550Z,15.90
2018-05-24T07:35:57.823Z,15.90
2018-05-24T07:39:08.822Z,16.00
2018-05-24T07:42:19.012Z,16.00
2018-05-24T07:45:30.612Z,16.00
2018-05-24T07:48:40.943Z,16.00
2018-05-24T07:51:52.339Z,16.10
2018-05-24T07:55:02.292Z,16.10
2018-05-24T07:58:12.199Z,16.10
2018-05-24T08:01:22.324Z,16.10
2018-05-24T08:04:33.044Z,16.10
2018-05-24T08:07:43.480Z,16.20
2018-05-24T08:10:54.239Z,16.20
2018-05-24T08:14:04.827Z,16.20
2018-05-24T08:17:14.796Z,16.20
2018-05-24T08:23:35.607Z,16.30
2018-05-24T08:26:45.887Z,16.40
2018-05-24T08:29:56.580Z,16.40
2018-05-24T08:33:07.202Z,16.40
2018-05-24T08:36:17.705Z,16.30
2018-05-24T08:39:27.654Z,16.40
2018-05-24T08:42:37.770Z,16.40
2018-05-24T08:45:48.339Z,16.40
2018-05-24T08:48:58.422Z,16.40
2018-05-24T08:52:08.527Z,16.40
2018-05-24T08:55:19.258Z,16.40
2018-05-24T08:58:29.153Z,16.40
2018-05-24T09:01:39.365Z,16.40
2018-05-24T09:04:49.899Z,16.40
2018-05-24T09:08:00.177Z,16.30
2018-05-24T09:11:10.136Z,16.30
2018-05-24T09:14:20.027Z,16.30
2018-05-24T09:17:30.083Z,16.30
2018-05-24T09:20:40.235Z,16.20
2018-05-24T09:23:51.578Z,16.30
2018-05-24T09:27:01.764Z,16.30
2018-05-24T09:30:12.351Z,16.30
2018-05-24T09:33:22.681Z,16.30
2018-05-24T09:36:33.198Z,16.30
2018-05-24T09:39:43.236Z,16.30
2018-05-24T09:42:54.719Z,16.30
2018-05-24T09:46:04.951Z,16.20
2018-05-24T09:49:14.934Z,16.30
2018-05-24T09:52:26.034Z,16.30
2018-05-24T09:55:36.559Z,16.30
2018-05-24T09:58:47.747Z,16.20
2018-05-24T10:01:58.159Z,16.20
2018-05-24T10:05:08.376Z,16.20
2018-05-24T10:08:18.161Z,16.20
2018-05-24T10:11:28.705Z,16.20
2018-05-24T10:14:38.605Z,16.20
2018-05-24T10:17:49.850Z,16.30
2018-05-24T10:20:59.800Z,16.30
2018-05-24T10:24:09.745Z,16.30
2018-05-24T10:27:19.643Z,16.40
2018-05-24T10:30:29.497Z,16.40
2018-05-24T10:33:40.963Z,16.50
2018-05-24T10:36:51.968Z,16.50
2018-05-24T10:40:01.999Z,16.50
2018-05-24T10:43:12.917Z,16.60
2018-05-24T10:46:22.854Z,16.60
2018-05-24T10:49:33.118Z,16.70
2018-05-24T10:52:43.949Z,16.80
2018-05-24T10:55:53.825Z,16.80
2018-05-24T10:59:04.434Z,16.90
2018-05-24T11:02:14.261Z,16.90
2018-05-24T11:05:24.546Z,16.90
2018-05-24T11:08:35.027Z,17.00
2018-05-24T11:11:45.323Z,17.00
2018-05-24T11:14:55.537Z,17.10
2018-05-24T11:18:05.312Z,17.00
2018-05-24T11:21:15.903Z,17.10
2018-05-24T11:24:27.587Z,17.30
2018-05-24T11:27:38.329Z,17.30
2018-05-24T11:30:48.907Z,17.30
2018-05-24T11:37:34.257Z,17.50
2018-05-24T11:40:45.039Z,17.80
2018-05-24T11:43:54.800Z,17.80
2018-05-24T11:47:15.938Z,18.00
2018-05-24T11:50:32.740Z,18.10
2018-05-24T11:57:18.759Z,18.30
2018-05-24T12:00:28.892Z,18.40
2018-05-24T12:03:38.773Z,18.50
2018-05-24T12:06:48.796Z,18.50
2018-05-24T12:09:58.864Z,18.70
2018-05-24T12:13:11.049Z,18.70
2018-05-24T12:16:21.144Z,18.80
2018-05-24T12:19:31.916Z,18.80
2018-05-24T12:22:42.521Z,19.30
2018-05-24T12:25:52.724Z,19.30
2018-05-24T12:29:03.330Z,19.30
2018-05-24T12:32:13.616Z,19.20
2018-05-24T12:35:23.687Z,19.20
2018-05-24T12:38:34.632Z,19.40
2018-05-24T12:41:44.936Z,19.40
2018-05-24T12:44:55.907Z,19.40
2018-05-24T12:48:05.952Z,19.40
2018-05-24T12:51:15.816Z,19.40
2018-05-24T12:54:26.255Z,19.50
2018-05-24T12:57:36.249Z,19.60
2018-05-24T13:00:46.123Z,19.60
2018-05-24T13:03:57.060Z,19.60
2018-05-24T13:07:07.195Z,19.60
2018-05-24T13:10:17.971Z,19.50
2018-05-24T13:13:27.725Z,19.60
2018-05-24T13:16:37.528Z,19.50
2018-05-24T13:19:47.476Z,19.60
2018-05-24T13:22:57.444Z,19.60
2018-05-24T13:26:07.616Z,19.40
2018-05-24T13:29:17.420Z,19.30
2018-05-24T13:32:27.366Z,19.30
2018-05-24T13:35:37.124Z,19.30
2018-05-24T13:38:47.222Z,19.30
2018-05-24T13:42:00.574Z,19.30
2018-05-24T13:45:11.728Z,19.20
2018-05-24T13:48:22.298Z,19.20
2018-05-24T13:51:32.224Z,19.10
2018-05-24T13:54:42.471Z,18.90
2018-05-24T13:57:53.154Z,18.90
2018-05-24T14:01:03.316Z,18.90
2018-05-24T14:04:13.635Z,19.00
2018-05-24T14:07:23.548Z,19.00
2018-05-24T14:10:34.381Z,19.00
2018-05-24T14:13:44.309Z,18.90
2018-05-24T14:16:54.542Z,18.80
2018-05-24T14:20:04.071Z,18.90
2018-05-24T14:23:14.461Z,19.00
2018-05-24T14:26:25.051Z,19.10
2018-05-24T14:29:35.119Z,19.10
2018-05-24T14:32:45.999Z,19.10
2018-05-24T14:35:57.275Z,18.90
2018-05-24T14:39:07.562Z,18.90
2018-05-24T14:42:18.186Z,18.90
2018-05-24T14:45:28.220Z,18.80
2018-05-24T14:48:38.165Z,18.90
2018-05-24T14:51:48.035Z,18.90
2018-05-24T14:54:59.072Z,18.70
2018-05-24T14:58:08.901Z,18.70
2018-05-24T15:01:19.442Z,18.50
2018-05-24T15:04:30.582Z,18.40
2018-05-24T15:07:41.331Z,18.30
2018-05-24T15:10:51.702Z,18.30
2018-05-24T15:14:01.941Z,18.30
2018-05-24T15:17:11.960Z,18.30
2018-05-24T15:20:22.738Z,18.20
2018-05-24T15:23:33.009Z,18.20
2018-05-24T15:26:43.704Z,18.00
2018-05-24T15:29:53.757Z,18.00
2018-05-24T15:33:03.548Z,18.00
2018-05-24T15:36:15.046Z,17.80
2018-05-24T15:39:24.999Z,17.80
2018-05-24T15:42:34.877Z,17.80
2018-05-24T15:45:44.806Z,17.60
2018-05-24T15:48:55.562Z,17.50
2018-05-24T15:52:05.676Z,17.50
2018-05-24T15:55:17.458Z,17.40
2018-05-24T15:58:28.148Z,17.40
2018-05-24T16:01:38.935Z,17.30
2018-05-24T16:04:49.293Z,17.30
2018-05-24T16:07:59.123Z,17.10
2018-05-24T16:11:08.974Z,17.00
2018-05-24T16:14:19.136Z,17.10
2018-05-24T16:17:29.170Z,17.00
2018-05-24T16:20:40.075Z,17.10
2018-05-24T16:23:51.149Z,17.10
2018-05-24T16:27:01.369Z,17.10
2018-05-24T16:30:12.708Z,17.30
2018-05-24T16:33:24.079Z,17.30
2018-05-24T16:36:34.243Z,17.30
2018-05-24T16:39:45.513Z,17.30
2018-05-24T16:42:55.820Z,17.40
2018-05-24T16:46:05.511Z,17.50
2018-05-24T16:49:15.709Z,17.60
2018-05-24T16:52:26.677Z,17.50
2018-05-24T16:55:36.903Z,17.50
2018-05-24T16:58:47.878Z,17.00
2018-05-24T17:01:57.796Z,16.90
2018-05-24T17:05:08.294Z,16.80
2018-05-24T17:08:19.010Z,16.70
2018-05-24T17:11:30.002Z,16.60
2018-05-24T17:14:40.408Z,16.60
2018-05-24T17:17:50.594Z,16.60
2018-05-24T17:21:00.729Z,16.40
2018-05-24T17:24:10.957Z,16.50
2018-05-24T17:27:21.055Z,16.60
2018-05-24T17:30:31.357Z,16.60
2018-05-24T17:33:41.371Z,16.50
2018-05-24T17:36:51.484Z,16.60
2018-05-24T17:40:01.547Z,16.60
2018-05-24T17:43:12.138Z,16.60
2018-05-24T17:46:22.656Z,16.60
2018-05-24T17:49:32.497Z,16.60
2018-05-24T17:52:43.067Z,16.50
2018-05-24T17:55:53.488Z,16.50
2018-05-24T17:59:04.029Z,16.40
2018-05-24T18:02:14.147Z,16.40
2018-05-24T18:05:23.983Z,16.40
2018-05-24T18:08:33.839Z,16.30
2018-05-24T18:11:43.896Z,16.40
2018-05-24T18:14:53.854Z,16.40
2018-05-24T18:18:04.812Z,16.40
2018-05-24T18:21:14.808Z,16.30
2018-05-24T18:24:25.666Z,16.20
2018-05-24T18:27:35.676Z,16.00
2018-05-24T18:30:45.635Z,16.00
2018-05-24T18:33:55.900Z,16.00
2018-05-24T18:37:05.821Z,16.00
2018-05-24T18:40:15.817Z,16.00
2018-05-24T18:43:25.912Z,16.00
2018-05-24T18:46:36.517Z,16.00
2018-05-24T18:49:47.039Z,16.00
2018-05-24T18:52:57.080Z,16.10
2018-05-24T18:56:07.584Z,16.10
2018-05-24T18:59:18.923Z,16.10
2018-05-24T19:02:29.291Z,16.00
2018-05-24T19:05:39.973Z,16.10
2018-05-24T19:08:49.819Z,16.00
2018-05-24T19:11:59.782Z,16.00
2018-05-24T19:15:10.438Z,16.00
2018-05-24T19:18:20.365Z,15.90
2018-05-24T19:21:30.987Z,15.90
2018-05-24T19:24:41.234Z,15.90
2018-05-24T19:27:51.959Z,15.80
2018-05-24T19:31:02.376Z,15.80
2018-05-24T19:34:12.864Z,15.80
2018-05-24T19:37:22.618Z,15.90
2018-05-24T19:40:34.495Z,15.90
2018-05-24T19:43:44.961Z,15.80
2018-05-24T19:46:55.108Z,15.90
2018-05-24T19:50:05.846Z,15.80
2018-05-24T19:53:16.063Z,15.80
2018-05-24T19:56:26.119Z,15.80
2018-05-24T19:59:36.579Z,15.80
2018-05-24T20:02:47.129Z,15.80
2018-05-24T20:05:57.647Z,15.90
2018-05-24T20:09:07.757Z,15.80
2018-05-24T20:12:17.474Z,15.80
2018-05-24T20:15:27.356Z,15.80
2018-05-24T20:18:37.260Z,15.80
2018-05-24T20:21:47.049Z,15.70
2018-05-24T20:24:56.971Z,15.70
2018-05-24T20:28:06.941Z,15.80
2018-05-24T20:31:17.396Z,15.70
2018-05-24T20:34:27.778Z,15.70
2018-05-24T20:37:37.534Z,15.60
2018-05-24T20:40:48.327Z,15.60
2018-05-24T20:43:58.106Z,15.60
2018-05-24T20:47:08.674Z,15.60
2018-05-24T20:50:18.890Z,15.60
2018-05-24T20:53:28.786Z,15.60
2018-05-24T20:56:39.008Z,15.60
2018-05-24T20:59:50.299Z,15.50
2018-05-24T21:03:00.452Z,15.50
2018-05-24T21:06:11.378Z,15.50
2018-05-24T21:09:22.064Z,15.50
2018-05-24T21:12:32.813Z,15.60
2018-05-24T21:15:43.500Z,15.60
2018-05-24T21:18:55.011Z,15.70
2018-05-24T21:22:05.494Z,15.60
2018-05-24T21:25:16.160Z,15.50
2018-05-24T21:28:26.380Z,15.50
2018-05-24T21:31:36.698Z,15.50
2018-05-24T21:34:46.565Z,15.50
2018-05-24T21:37:57.390Z,15.50
2018-05-24T21:41:08.522Z,15.50
2018-05-24T21:44:19.580Z,15.50
2018-05-24T21:47:29.973Z,15.50
2018-05-24T21:50:39.693Z,15.50
2018-05-24T21:53:49.388Z,15.40
2018-05-24T21:56:59.967Z,15.30
2018-05-24T22:00:10.598Z,15.40
2018-05-24T22:03:21.702Z,15.30
2018-05-24T22:06:32.457Z,15.30
2018-05-24T22:09:42.721Z,15.30
2018-05-24T22:12:52.786Z,15.30
2018-05-24T22:19:39.171Z,15.30
2018-05-24T22:22:49.509Z,15.30
2018-05-24T22:26:01.857Z,15.10
2018-05-24T22:29:11.976Z,15.10
2018-05-24T22:32:27.917Z,15.20
2018-05-24T22:35:37.857Z,15.20
2018-05-24T22:38:47.808Z,15.20
2018-05-24T22:41:57.676Z,15.30
2018-05-24T22:48:44.262Z,15.20
2018-05-24T22:51:54.027Z,15.20
2018-05-24T22:55:04.085Z,15.20
2018-05-24T22:58:15.038Z,15.20
2018-05-24T23:01:25.716Z,15.20
2018-05-24T23:04:35.686Z,15.20
2018-05-24T23:07:45.499Z,15.10
2018-05-24T23:14:31.456Z,15.30
2018-05-24T23:17:41.445Z,15.30
2018-05-24T23:20:51.700Z,15.30
2018-05-24T23:24:01.916Z,15.30
2018-05-24T23:27:11.787Z,15.20
2018-05-24T23:30:22.456Z,15.20
2018-05-24T23:33:32.455Z,15.20
2018-05-24T23:36:42.806Z,15.10
2018-05-24T23:39:52.822Z,15.00
2018-05-24T23:43:02.854Z,15.00
2018-05-24T23:46:12.845Z,15.00
2018-05-24T23:49:22.768Z,15.00
2018-05-24T23:52:32.923Z,15.00
2018-05-24T23:55:42.901Z,15.00
2018-05-24T23:58:53.180Z,15.10
